Time;durP1;ratioP1;P1;durP2;ratioP2;P2;SDS_P1;SDS_P2;PMS_P1;PMS_P2;Temp;Humidity;BMP_temperature;BMP_pressure;BME280_temperature;BME280_humidity;BME280_pressure;Samples;Min_cycle;Max_cycle;Signal;HPM_P1;HPM_P2
2021/07/28 00:02:26;;;;;;;5.68;4.25;;;24.10;70.90;;;;;;5009366;28;20096;-69
2021/07/28 00:05:12;;;;;;;5.90;4.28;;;24.10;70.70;;;;;;5007502;28;20065;-69
2021/07/28 00:07:58;;;;;;;9.68;4.38;;;24.10;71.00;;;;;;5009776;28;20110;-70
2021/07/28 00:10:43;;;;;;;7.63;4.53;;;24.10;71.30;;;;;;5000007;28;20026;-69
2021/07/28 00:13:29;;;;;;;5.00;4.13;;;24.10;71.30;;;;;;5009843;28;20032;-69
2021/07/28 00:16:15;;;;;;;6.50;4.65;;;24.10;71.50;;;;;;5011007;28;20038;-70
2021/07/28 00:19:07;;;;;;;6.63;4.55;;;24.10;71.40;;;;;;5012477;28;20038;-69
2021/07/28 00:24:57;;;;;;;4.82;3.83;;;24.00;71.60;;;;;;5013893;28;20025;-68
2021/07/28 00:27:43;;;;;;;7.05;4.57;;;24.00;71.70;;;;;;5006506;28;20030;-68
2021/07/28 00:30:30;;;;;;;5.63;4.00;;;24.00;71.80;;;;;;5011896;28;20038;-68
2021/07/28 00:33:15;;;;;;;5.68;4.53;;;24.00;71.90;;;;;;5012152;28;20080;-68
2021/07/28 00:36:01;;;;;;;5.57;4.30;;;24.00;72.00;;;;;;5011955;28;20064;-68
2021/07/28 00:38:47;;;;;;;7.57;4.55;;;24.00;72.00;;;;;;5015915;28;20052;-68
2021/07/28 00:41:33;;;;;;;7.13;4.20;;;24.00;72.30;;;;;;5013084;28;20030;-68
2021/07/28 00:44:19;;;;;;;7.80;4.53;;;23.90;72.30;;;;;;5013356;28;20112;-68
2021/07/28 00:47:04;;;;;;;5.05;4.20;;;23.90;72.50;;;;;;5014426;28;20114;-71
2021/07/28 00:49:50;;;;;;;5.63;4.07;;;23.90;72.50;;;;;;5013866;28;20398;-68
2021/07/28 00:52:48;;;;;;;5.82;4.60;;;23.80;72.70;;;;;;5007643;28;20034;-69
2021/07/28 00:55:34;;;;;;;5.85;4.35;;;23.70;72.80;;;;;;4995358;28;20034;-68
2021/07/28 00:58:21;;;;;;;5.88;4.55;;;23.70;73.20;;;;;;5005312;28;20026;-70
2021/07/28 01:01:06;;;;;;;6.47;4.60;;;23.70;74.30;;;;;;5011716;28;20405;-68
2021/07/28 01:03:52;;;;;;;9.68;5.18;;;23.60;74.10;;;;;;5010414;28;20437;-70
2021/07/28 01:06:38;;;;;;;7.55;4.35;;;23.60;74.10;;;;;;5011164;28;20545;-68
2021/07/28 01:09:28;;;;;;;4.53;3.80;;;23.60;74.30;;;;;;5001638;28;20022;-69
2021/07/28 01:12:14;;;;;;;4.95;4.20;;;23.60;74.50;;;;;;5011523;28;20117;-70
2021/07/28 01:15:00;;;;;;;6.28;4.60;;;23.50;74.60;;;;;;5014636;28;20541;-69
2021/07/28 01:17:46;;;;;;;5.57;4.45;;;23.50;75.10;;;;;;5012700;28;20030;-69
2021/07/28 01:20:45;;;;;;;6.78;4.60;;;23.50;75.60;;;;;;5011884;28;20101;-69
2021/07/28 01:23:31;;;;;;;7.88;4.45;;;23.50;75.70;;;;;;5007298;28;20030;-69
2021/07/28 01:26:18;;;;;;;7.00;4.60;;;23.40;76.10;;;;;;4993939;28;20045;-70
2021/07/28 01:29:04;;;;;;;6.38;4.25;;;23.40;76.30;;;;;;4996712;28;20061;-70
2021/07/28 01:31:53;;;;;;;7.03;4.60;;;23.40;76.50;;;;;;5012032;28;20032;-70
2021/07/28 01:34:39;;;;;;;8.02;4.00;;;23.30;76.60;;;;;;5000717;28;20088;-70
2021/07/28 01:37:27;;;;;;;5.68;4.00;;;23.30;77.10;;;;;;5009707;28;20061;-70
2021/07/28 01:40:13;;;;;;;5.05;4.18;;;23.30;77.40;;;;;;4995132;28;20042;-71
2021/07/28 01:42:59;;;;;;;4.60;4.00;;;23.20;77.40;;;;;;5007603;28;20029;-70
2021/07/28 01:45:45;;;;;;;4.28;3.88;;;23.20;77.80;;;;;;5014631;28;20414;-70
2021/07/28 01:48:31;;;;;;;8.13;4.47;;;23.20;77.70;;;;;;5010081;28;20056;-71
2021/07/28 01:51:17;;;;;;;6.13;4.50;;;23.20;77.80;;;;;;5012581;28;20045;-71
2021/07/28 01:54:03;;;;;;;7.85;4.68;;;23.20;78.00;;;;;;4994108;28;20034;-71
2021/07/28 01:56:48;;;;;;;7.95;5.07;;;23.10;78.20;;;;;;4998444;28;20025;-70
2021/07/28 01:59:40;;;;;;;5.45;4.20;;;23.10;78.20;;;;;;5013024;28;20049;-70
2021/07/28 02:02:24;;;;;;;5.45;4.30;;;23.10;78.40;;;;;;5010424;28;20064;-71
2021/07/28 02:05:08;;;;;;;6.38;4.15;;;23.10;78.40;;;;;;5013526;28;20037;-71
2021/07/28 02:07:52;;;;;;;6.20;4.57;;;23.00;78.50;;;;;;5010828;28;20084;-71
2021/07/28 02:10:42;;;;;;;5.70;4.18;;;23.00;78.70;;;;;;5012276;28;20386;-70
2021/07/28 02:13:26;;;;;;;6.68;4.15;;;23.00;78.80;;;;;;5009635;28;20441;-69
2021/07/28 02:16:10;;;;;;;7.82;4.95;;;23.00;78.90;;;;;;5012182;28;20493;-70
2021/07/28 02:18:54;;;;;;;6.03;4.83;;;22.90;78.90;;;;;;5012780;28;20053;-69
2021/07/28 02:21:38;;;;;;;6.43;4.32;;;22.90;79.10;;;;;;5010738;28;20717;-69
2021/07/28 02:24:22;;;;;;;6.28;4.55;;;22.90;79.10;;;;;;5012591;28;20036;-70
2021/07/28 02:27:07;;;;;;;6.45;4.75;;;22.90;79.30;;;;;;5010389;28;20497;-70
2021/07/28 02:29:51;;;;;;;5.10;3.90;;;22.90;79.50;;;;;;5012185;28;20187;-70
2021/07/28 02:32:35;;;;;;;7.40;4.35;;;22.90;79.70;;;;;;4988441;28;20084;-70
2021/07/28 02:35:19;;;;;;;5.93;3.90;;;22.90;80.10;;;;;;5001005;28;20036;-70
2021/07/28 02:38:04;;;;;;;6.10;4.15;;;22.90;80.00;;;;;;5009631;28;20072;-71
2021/07/28 02:40:48;;;;;;;7.82;4.68;;;22.90;80.00;;;;;;5009339;28;20477;-70
2021/07/28 02:43:32;;;;;;;5.60;4.40;;;22.90;80.10;;;;;;5011370;28;20037;-70
2021/07/28 02:46:16;;;;;;;5.30;4.60;;;22.80;80.50;;;;;;5009881;28;20073;-70
2021/07/28 02:48:59;;;;;;;5.85;4.38;;;22.80;81.10;;;;;;4992818;28;20085;-70
2021/07/28 02:51:43;;;;;;;5.43;4.10;;;22.80;80.80;;;;;;4999757;28;20577;-70
2021/07/28 02:54:27;;;;;;;5.17;4.40;;;22.90;81.00;;;;;;5011128;28;20040;-70
2021/07/28 02:57:11;;;;;;;5.53;3.90;;;22.90;81.10;;;;;;5010859;28;20300;-69
2021/07/28 02:59:56;;;;;;;6.65;4.38;;;22.90;81.00;;;;;;5012279;28;20073;-71
2021/07/28 03:02:39;;;;;;;6.68;4.20;;;22.90;81.30;;;;;;4996072;28;20037;-71
2021/07/28 03:05:23;;;;;;;5.30;4.35;;;22.90;81.20;;;;;;5022985;28;20147;-69
2021/07/28 03:08:07;;;;;;;4.93;4.03;;;22.90;81.20;;;;;;5005152;28;20113;-69
2021/07/28 03:10:51;;;;;;;5.18;3.92;;;22.90;81.30;;;;;;5018374;28;20160;-69
2021/07/28 03:13:35;;;;;;;6.57;5.00;;;22.90;81.40;;;;;;5010646;28;20590;-69
2021/07/28 03:16:19;;;;;;;6.65;4.43;;;22.80;81.60;;;;;;5011042;28;20283;-69
2021/07/28 03:19:03;;;;;;;7.43;4.63;;;22.80;81.70;;;;;;4992312;28;20495;-69
2021/07/28 03:21:50;;;;;;;5.07;4.10;;;22.80;81.70;;;;;;5003528;28;20101;-69
2021/07/28 03:24:33;;;;;;;5.25;3.78;;;22.80;81.70;;;;;;5011806;28;20056;-69
2021/07/28 03:27:17;;;;;;;5.95;4.78;;;22.90;81.90;;;;;;5009778;28;20056;-69
2021/07/28 03:30:02;;;;;;;5.82;4.32;;;22.90;82.00;;;;;;5012225;28;20072;-70
2021/07/28 03:32:46;;;;;;;5.28;4.00;;;22.90;82.00;;;;;;5009363;28;20385;-70
2021/07/28 03:35:30;;;;;;;5.28;4.18;;;22.90;82.10;;;;;;5011474;28;20049;-69
2021/07/28 03:38:15;;;;;;;5.18;3.80;;;22.90;82.20;;;;;;5009710;28;20113;-70
2021/07/28 03:40:59;;;;;;;5.25;4.30;;;22.90;82.40;;;;;;5011442;28;20065;-70
2021/07/28 03:43:42;;;;;;;5.28;4.30;;;22.90;82.70;;;;;;5009586;28;20036;-69
2021/07/28 03:46:26;;;;;;;4.82;3.97;;;22.90;83.30;;;;;;5008887;28;20041;-70
2021/07/28 03:49:10;;;;;;;5.10;4.00;;;22.90;83.90;;;;;;4992156;28;20084;-70
2021/07/28 03:51:54;;;;;;;5.57;4.20;;;22.80;84.10;;;;;;5000415;28;20584;-70
2021/07/28 03:54:38;;;;;;;6.27;4.43;;;22.80;84.30;;;;;;4996150;28;20029;-70
2021/07/28 03:57:22;;;;;;;5.40;4.23;;;22.80;84.50;;;;;;5003536;28;20293;-70
2021/07/28 04:00:07;;;;;;;5.80;4.10;;;22.80;84.70;;;;;;4997099;28;20347;-70
2021/07/28 04:02:51;;;;;;;6.70;4.20;;;22.80;84.90;;;;;;5013823;28;20183;-70
2021/07/28 04:05:37;;;;;;;7.50;4.30;;;22.80;85.20;;;;;;5012789;28;20026;-70
2021/07/28 04:08:23;;;;;;;6.32;4.38;;;22.70;85.30;;;;;;5013282;28;20797;-70
2021/07/28 04:11:09;;;;;;;5.15;4.20;;;22.70;85.50;;;;;;5014100;28;20026;-70
2021/07/28 04:13:55;;;;;;;5.90;4.50;;;22.70;85.70;;;;;;4995465;28;20537;-69
2021/07/28 04:16:40;;;;;;;7.78;5.70;;;22.70;85.80;;;;;;5003352;28;20022;-69
2021/07/28 04:19:26;;;;;;;5.78;4.57;;;22.70;86.00;;;;;;5013299;28;20041;-69
2021/07/28 04:22:12;;;;;;;6.45;4.75;;;22.70;86.40;;;;;;5011802;28;20045;-69
2021/07/28 04:25:01;;;;;;;5.28;4.40;;;22.70;86.40;;;;;;5014023;28;20548;-69
2021/07/28 04:27:46;;;;;;;7.68;4.65;;;22.70;86.90;;;;;;5003487;28;20069;-69
2021/07/28 04:30:32;;;;;;;6.53;4.65;;;22.70;87.00;;;;;;5011630;28;20100;-69
2021/07/28 04:33:18;;;;;;;6.68;4.57;;;22.70;87.20;;;;;;5014520;28;20395;-69
2021/07/28 04:36:04;;;;;;;5.85;4.45;;;22.70;87.40;;;;;;5014279;28;20026;-69
2021/07/28 04:38:50;;;;;;;6.55;4.95;;;22.70;87.30;;;;;;5014561;28;20605;-68
2021/07/28 04:41:36;;;;;;;5.40;4.32;;;22.70;87.30;;;;;;5010775;28;20034;-68
2021/07/28 04:44:22;;;;;;;6.68;4.63;;;22.70;87.60;;;;;;4998241;28;20022;-68
2021/07/28 04:47:07;;;;;;;6.15;4.43;;;22.70;87.30;;;;;;5013270;28;20097;-68
2021/07/28 04:49:53;;;;;;;7.22;5.25;;;22.70;87.30;;;;;;5013439;28;20049;-69
2021/07/28 04:52:39;;;;;;;6.90;4.70;;;22.60;87.30;;;;;;5008389;28;20053;-68
2021/07/28 04:55:25;;;;;;;6.20;4.65;;;22.60;87.60;;;;;;5007244;28;20058;-69
2021/07/28 04:58:11;;;;;;;5.97;4.75;;;22.60;87.90;;;;;;5012111;28;20037;-68
2021/07/28 05:00:57;;;;;;;7.40;4.78;;;22.60;87.80;;;;;;5006637;28;20439;-68
2021/07/28 05:03:43;;;;;;;6.90;4.80;;;22.60;87.90;;;;;;5013089;28;20033;-68
2021/07/28 05:06:29;;;;;;;6.63;4.85;;;22.50;88.10;;;;;;5003526;28;20038;-69
2021/07/28 05:09:16;;;;;;;5.72;4.78;;;22.50;88.50;;;;;;4995418;28;20078;-68
2021/07/28 05:12:02;;;;;;;5.97;4.95;;;22.50;88.60;;;;;;4998580;28;20490;-68
2021/07/28 05:14:47;;;;;;;6.68;4.80;;;22.50;88.80;;;;;;5015649;28;20081;-68
2021/07/28 05:17:33;;;;;;;7.47;5.05;;;22.50;88.40;;;;;;5016461;28;20113;-68
2021/07/28 05:20:19;;;;;;;7.45;4.90;;;22.60;88.30;;;;;;5020959;28;20497;-68
2021/07/28 05:23:05;;;;;;;6.18;4.68;;;22.60;88.30;;;;;;5034190;28;20044;-72
2021/07/28 05:25:51;;;;;;;5.63;4.88;;;22.60;88.40;;;;;;5034671;28;20592;-71
2021/07/28 05:28:37;;;;;;;6.65;5.20;;;22.60;88.30;;;;;;5025491;28;20062;-71
2021/07/28 05:31:22;;;;;;;7.65;5.30;;;22.60;88.40;;;;;;5029065;28;20542;-72
2021/07/28 05:34:08;;;;;;;8.65;5.75;;;22.60;88.80;;;;;;5007954;28;20030;-73
2021/07/28 05:36:57;;;;;;;6.45;5.28;;;22.60;89.00;;;;;;5016563;28;20033;-71
2021/07/28 05:39:43;;;;;;;7.93;5.15;;;22.60;89.20;;;;;;5006754;28;20508;-73
2021/07/28 05:42:28;;;;;;;6.07;4.93;;;22.60;89.50;;;;;;5013939;28;20124;-69
2021/07/28 05:45:14;;;;;;;8.85;5.43;;;22.70;89.90;;;;;;5013516;28;20375;-69
2021/07/28 05:48:00;;;;;;;6.72;4.85;;;22.60;90.00;;;;;;5006375;28;20033;-71
2021/07/28 05:50:46;;;;;;;6.40;5.25;;;22.70;90.20;;;;;;5012140;28;20048;-68
2021/07/28 05:53:34;;;;;;;8.18;5.60;;;22.60;90.20;;;;;;5012394;28;20110;-72
2021/07/28 05:56:19;;;;;;;8.60;5.20;;;22.60;90.30;;;;;;5017837;28;20026;-71
2021/07/28 05:59:05;;;;;;;7.75;5.80;;;22.60;90.30;;;;;;4993647;28;20109;-73
2021/07/28 06:01:49;;;;;;;6.40;5.03;;;22.60;90.40;;;;;;5011137;28;20029;-72
2021/07/28 06:04:33;;;;;;;7.32;5.20;;;22.60;90.50;;;;;;5013559;28;20069;-72
2021/07/28 06:07:17;;;;;;;6.53;5.30;;;22.70;90.40;;;;;;5009977;28;20028;-72
2021/07/28 06:10:02;;;;;;;6.05;5.30;;;22.70;90.50;;;;;;5012746;28;20044;-71
2021/07/28 06:12:45;;;;;;;8.13;5.37;;;22.70;90.70;;;;;;5007972;28;20129;-70
2021/07/28 06:15:29;;;;;;;7.40;5.30;;;22.70;90.90;;;;;;5004090;28;20077;-70
2021/07/28 06:18:14;;;;;;;7.47;5.53;;;22.80;91.00;;;;;;5008419;28;20052;-71
2021/07/28 06:20:58;;;;;;;7.57;5.60;;;22.80;91.10;;;;;;5009133;28;20180;-69
2021/07/28 06:23:43;;;;;;;8.02;5.38;;;22.90;91.00;;;;;;5007804;28;20061;-70
2021/07/28 06:26:28;;;;;;;7.35;5.45;;;22.90;91.10;;;;;;5008217;28;20048;-70
2021/07/28 06:29:12;;;;;;;8.50;5.65;;;22.90;91.10;;;;;;5001888;28;20080;-70
2021/07/28 06:31:56;;;;;;;7.90;5.00;;;22.90;91.10;;;;;;5008642;28;20041;-70
2021/07/28 06:34:40;;;;;;;8.82;5.10;;;22.90;91.10;;;;;;5004923;28;20116;-70
2021/07/28 06:37:24;;;;;;;7.78;5.65;;;23.00;91.00;;;;;;5008897;28;20883;-70
2021/07/28 06:40:09;;;;;;;6.35;5.03;;;23.00;91.10;;;;;;5007400;28;20056;-70
2021/07/28 06:42:53;;;;;;;7.03;5.00;;;23.00;91.10;;;;;;5004931;28;20118;-70
2021/07/28 06:45:37;;;;;;;6.32;4.68;;;23.00;91.10;;;;;;5009574;28;20389;-70
2021/07/28 06:48:21;;;;;;;7.05;4.72;;;23.10;91.10;;;;;;5002705;28;20049;-70
2021/07/28 06:51:05;;;;;;;8.27;5.15;;;23.20;90.90;;;;;;5002378;28;20122;-70
2021/07/28 06:53:49;;;;;;;7.70;4.57;;;23.20;90.90;;;;;;5009244;28;20445;-70
2021/07/28 06:56:33;;;;;;;7.43;4.97;;;23.20;90.60;;;;;;5005808;28;20451;-70
2021/07/28 06:59:17;;;;;;;6.28;4.57;;;23.30;90.40;;;;;;5005887;28;20060;-70
2021/07/28 07:02:01;;;;;;;9.20;4.72;;;23.30;90.10;;;;;;5004379;28;20053;-70
2021/07/28 07:04:45;;;;;;;6.85;4.18;;;23.30;90.20;;;;;;5004330;28;20061;-70
2021/07/28 07:07:29;;;;;;;5.70;4.07;;;23.40;89.40;;;;;;5008831;28;20096;-70
2021/07/28 07:10:13;;;;;;;12.20;5.18;;;23.40;89.10;;;;;;5005566;28;20129;-70
2021/07/28 07:12:57;;;;;;;5.90;4.32;;;23.50;88.30;;;;;;5008361;28;20137;-69
2021/07/28 07:15:41;;;;;;;6.88;4.90;;;23.50;88.40;;;;;;5006914;28;20041;-70
2021/07/28 07:18:25;;;;;;;6.90;4.88;;;23.60;87.30;;;;;;5009002;28;20045;-70
2021/07/28 07:21:09;;;;;;;7.25;5.07;;;23.60;87.10;;;;;;4998244;28;20101;-70
2021/07/28 07:23:55;;;;;;;8.10;4.43;;;23.70;86.20;;;;;;5007540;28;20521;-70
2021/07/28 07:26:39;;;;;;;6.40;4.82;;;23.70;85.60;;;;;;4993613;28;20628;-70
2021/07/28 07:29:23;;;;;;;7.43;4.35;;;23.70;84.90;;;;;;5009116;28;20036;-72
2021/07/28 07:32:07;;;;;;;6.95;5.00;;;23.80;84.80;;;;;;5007579;28;20548;-72
2021/07/28 07:34:51;;;;;;;9.65;5.03;;;23.90;84.50;;;;;;5006065;28;20461;-72
2021/07/28 07:37:35;;;;;;;7.60;5.13;;;24.00;84.30;;;;;;5003151;28;20056;-72
2021/07/28 07:40:19;;;;;;;7.68;5.40;;;24.00;83.80;;;;;;5002340;28;20107;-72
2021/07/28 07:43:06;;;;;;;8.85;5.15;;;24.10;83.50;;;;;;5005891;28;20037;-71
2021/07/28 07:45:50;;;;;;;8.15;5.53;;;24.20;83.30;;;;;;5009668;28;20064;-71
2021/07/28 07:48:34;;;;;;;10.45;5.93;;;24.40;82.70;;;;;;5005943;28;20108;-71
2021/07/28 07:51:19;;;;;;;;;;;24.40;82.30;;;;;;5009073;28;20045;-72
2021/07/28 07:54:03;;;;;;;6.15;4.60;;;24.50;82.20;;;;;;4995796;28;19972;-72
2021/07/28 07:56:47;;;;;;;5.35;4.50;;;24.50;81.90;;;;;;5002378;28;20044;-72
2021/07/28 07:59:31;;;;;;;6.43;4.17;;;24.50;81.70;;;;;;5006575;28;20044;-72
2021/07/28 08:02:15;;;;;;;6.35;4.47;;;24.50;81.70;;;;;;5004096;28;20340;-72
2021/07/28 08:04:59;;;;;;;6.70;4.90;;;24.60;82.30;;;;;;5008540;28;20070;-72
2021/07/28 08:07:45;;;;;;;6.78;4.30;;;24.70;81.30;;;;;;5009974;28;20030;-72
2021/07/28 08:10:31;;;;;;;5.55;4.20;;;24.80;81.30;;;;;;5007468;28;20391;-72
2021/07/28 08:13:16;;;;;;;6.18;4.28;;;24.90;80.70;;;;;;5007076;28;20482;-72
2021/07/28 08:16:09;;;;;;;6.68;4.18;;;25.00;80.60;;;;;;5008577;28;20363;-71
2021/07/28 08:18:55;;;;;;;6.50;4.25;;;25.20;80.40;;;;;;5004048;28;20112;-72
2021/07/28 08:21:41;;;;;;;5.88;4.25;;;25.30;80.90;;;;;;5009744;28;20054;-72
2021/07/28 08:24:27;;;;;;;6.50;4.13;;;25.40;79.70;;;;;;5007672;28;20813;-72
2021/07/28 08:27:12;;;;;;;5.40;3.78;;;25.60;79.60;;;;;;5011976;28;20505;-73
2021/07/28 08:29:58;;;;;;;6.05;4.03;;;25.70;79.40;;;;;;5007933;28;20022;-72
2021/07/28 08:32:44;;;;;;;7.93;4.35;;;25.80;79.30;;;;;;5006883;28;20026;-71
2021/07/28 08:35:30;;;;;;;7.43;4.60;;;25.90;78.70;;;;;;5000331;28;20039;-71
2021/07/28 08:38:20;;;;;;;5.63;3.72;;;26.10;78.70;;;;;;5006021;28;20038;-72
2021/07/28 08:41:06;;;;;;;4.93;3.38;;;26.20;78.70;;;;;;5010013;28;20789;-72
2021/07/28 08:43:57;;;;;;;5.30;3.95;;;26.30;77.50;;;;;;5012146;28;20026;-72
2021/07/28 08:46:44;;;;;;;7.43;3.58;;;26.40;77.10;;;;;;5010299;28;20450;-73
2021/07/28 08:49:31;;;;;;;6.57;4.40;;;26.40;77.80;;;;;;5008370;28;20140;-74
2021/07/28 08:52:18;;;;;;;6.30;4.07;;;26.40;77.40;;;;;;5006752;28;20060;-72
2021/07/28 08:55:06;;;;;;;6.57;3.97;;;26.40;76.90;;;;;;5006842;28;20033;-73
2021/07/28 08:57:52;;;;;;;4.55;3.92;;;26.40;76.70;;;;;;5004908;28;20038;-72
2021/07/28 09:00:46;;;;;;;5.15;4.00;;;26.40;77.00;;;;;;5006436;28;20045;-75
2021/07/28 09:03:32;;;;;;;7.22;4.25;;;26.50;77.60;;;;;;5010779;28;20100;-73
2021/07/28 09:06:30;;;;;;;5.15;3.85;;;26.60;77.90;;;;;;5011657;28;20091;-73
2021/07/28 09:09:17;;;;;;;5.45;4.10;;;26.70;77.70;;;;;;5012579;28;20032;-73
2021/07/28 09:12:04;;;;;;;6.70;4.00;;;26.70;77.90;;;;;;5008765;28;20367;-73
2021/07/28 09:14:56;;;;;;;5.45;3.83;;;26.70;77.00;;;;;;5006392;28;20038;-74
2021/07/28 09:17:47;;;;;;;5.72;3.95;;;26.80;77.20;;;;;;5003451;28;20022;-73
2021/07/28 09:20:35;;;;;;;4.43;3.90;;;26.80;76.80;;;;;;4994277;28;20498;-72
2021/07/28 09:23:20;;;;;;;4.85;3.67;;;26.80;75.10;;;;;;5009930;28;20026;-73
2021/07/28 09:26:33;;;;;;;5.68;3.90;;;26.80;75.30;;;;;;5010990;28;20026;-74
2021/07/28 09:29:24;;;;;;;5.72;4.43;;;26.80;76.50;;;;;;5009485;28;20065;-73
2021/07/28 09:32:12;;;;;;;5.55;4.57;;;26.80;76.50;;;;;;4993111;28;20026;-73
2021/07/28 09:34:58;;;;;;;5.93;4.28;;;26.90;76.60;;;;;;5003503;28;20117;-73
2021/07/28 09:37:44;;;;;;;4.93;3.75;;;27.00;76.00;;;;;;5004262;28;20600;-74
2021/07/28 09:40:30;;;;;;;5.38;3.50;;;27.00;75.50;;;;;;5010109;28;20048;-74
2021/07/28 09:43:15;;;;;;;5.20;3.90;;;27.00;75.20;;;;;;5005387;28;20486;-74
2021/07/28 09:46:19;;;;;;;5.68;3.60;;;27.10;74.90;;;;;;5017399;28;20470;-74
2021/07/28 09:49:06;;;;;;;3.95;3.03;;;27.10;73.50;;;;;;5011927;28;20099;-75
2021/07/28 09:51:52;;;;;;;4.63;3.20;;;27.10;73.00;;;;;;5003338;28;20073;-74
2021/07/28 09:54:38;;;;;;;3.70;2.95;;;27.20;72.70;;;;;;5018787;28;20018;-74
2021/07/28 09:57:26;;;;;;;5.53;3.10;;;27.20;71.20;;;;;;4998992;28;20080;-74
2021/07/28 10:00:06;;;;;;;3.85;3.20;;;27.30;71.50;;;;;;4995060;28;20450;-74
2021/07/28 10:02:56;;;;;;;5.45;3.08;;;27.40;70.80;;;;;;5010484;28;20042;-74
2021/07/28 10:05:40;;;;;;;4.00;3.13;;;27.40;70.00;;;;;;5013146;28;20053;-75
2021/07/28 10:08:24;;;;;;;5.78;3.63;;;27.50;70.20;;;;;;5024164;28;20577;-74
2021/07/28 10:11:13;;;;;;;4.97;3.40;;;27.50;70.60;;;;;;5012234;28;20108;-74
2021/07/28 10:13:57;;;;;;;4.57;3.53;;;27.60;69.70;;;;;;4992925;28;20085;-75
2021/07/28 10:16:41;;;;;;;4.20;3.13;;;27.60;69.80;;;;;;4996143;28;20113;-74
2021/07/28 10:19:26;;;;;;;4.38;3.42;;;27.60;69.00;;;;;;5019554;28;20100;-74
2021/07/28 10:22:11;;;;;;;;;;;27.70;69.30;;;;;;5002225;28;20033;-74
2021/07/28 10:24:56;;;;;;;7.72;3.30;;;27.80;70.40;;;;;;5007035;28;19921;-73
2021/07/28 10:27:41;;;;;;;;;;;27.70;68.70;;;;;;4991400;28;20040;-73
2021/07/28 10:30:26;;;;;;;8.27;5.25;;;27.80;69.90;;;;;;5004813;28;20531;-73
2021/07/28 10:33:23;;;;;;;;;;;27.90;68.90;;;;;;5013189;28;20032;-73
2021/07/28 10:36:07;;;;;;;4.70;3.20;;;27.90;69.30;;;;;;4995089;28;19932;-73
2021/07/28 10:38:55;;;;;;;5.10;3.67;;;27.80;68.80;;;;;;5011401;28;20446;-73
2021/07/28 10:41:41;;;;;;;6.45;4.00;;;27.80;69.10;;;;;;5012407;28;20048;-75
2021/07/28 10:44:25;;;;;;;6.15;3.70;;;27.90;69.00;;;;;;5011931;28;20037;-75
2021/07/28 10:47:11;;;;;;;5.18;3.65;;;28.00;68.80;;;;;;5009584;28;20505;-72
2021/07/28 10:49:55;;;;;;;5.63;3.75;;;28.00;68.90;;;;;;5009228;28;20059;-71
2021/07/28 10:52:44;;;;;;;5.45;4.00;;;28.10;67.80;;;;;;4992699;28;20046;-75
2021/07/28 10:55:29;;;;;;;4.28;3.75;;;28.20;68.10;;;;;;4980283;28;20801;-74
2021/07/28 10:58:24;;;;;;;4.70;3.20;;;28.20;67.70;;;;;;5010741;28;20370;-74
2021/07/28 11:01:09;;;;;;;4.90;3.40;;;28.30;67.60;;;;;;5008748;28;20044;-74
2021/07/28 11:04:13;;;;;;;;;;;28.30;66.60;;;;;;5022106;28;20548;-72
2021/07/28 11:06:56;;;;;;;5.07;3.58;;;28.30;66.50;;;;;;5011380;28;19916;-74
2021/07/28 11:09:42;;;;;;;3.83;3.00;;;28.20;66.20;;;;;;5007011;28;20037;-73
2021/07/28 11:12:29;;;;;;;5.07;3.97;;;28.30;65.60;;;;;;5010480;28;20044;-74
2021/07/28 11:15:16;;;;;;;4.40;3.72;;;28.30;64.50;;;;;;4983510;28;20437;-74
2021/07/28 11:18:01;;;;;;;4.72;3.38;;;28.40;65.20;;;;;;5007953;28;20080;-73
2021/07/28 11:20:46;;;;;;;4.57;3.45;;;28.40;64.20;;;;;;5010962;28;20095;-73
2021/07/28 11:23:30;;;;;;;4.53;3.20;;;28.50;64.10;;;;;;4994695;28;20033;-73
2021/07/28 11:26:25;;;;;;;5.22;3.33;;;28.50;63.10;;;;;;5008362;28;20057;-73
2021/07/28 11:29:14;;;;;;;4.15;2.85;;;28.60;63.30;;;;;;5014866;28;20084;-74
2021/07/28 11:31:58;;;;;;;5.45;2.90;;;28.60;62.60;;;;;;5008234;28;20029;-71
2021/07/28 11:34:57;;;;;;;3.72;2.70;;;28.70;60.90;;;;;;4993106;28;20160;-73
2021/07/28 11:37:41;;;;;;;5.18;2.97;;;28.70;59.80;;;;;;5007453;28;20137;-74
2021/07/28 11:40:44;;;;;;;6.00;4.28;;;28.70;59.70;;;;;;5009106;28;20131;-71
2021/07/28 11:43:30;;;;;;;6.00;4.63;;;28.70;59.60;;;;;;5005533;28;20532;-71
2021/07/28 11:46:18;;;;;;;5.85;3.92;;;28.70;58.80;;;;;;4999941;28;20169;-71
2021/07/28 11:49:08;;;;;;;4.63;3.28;;;28.70;58.70;;;;;;5005061;28;20149;-71
2021/07/28 11:51:58;;;;;;;4.88;2.90;;;28.70;57.60;;;;;;5002141;28;20041;-71
2021/07/28 11:54:42;;;;;;;4.70;2.72;;;28.80;57.70;;;;;;5006869;28;20032;-71
2021/07/28 11:57:26;;;;;;;5.03;2.75;;;28.70;57.30;;;;;;5003587;28;20045;-71
2021/07/28 12:00:30;;;;;;;5.53;2.88;;;28.70;57.50;;;;;;4998673;28;20081;-72
2021/07/28 12:03:24;;;;;;;9.13;5.60;;;28.70;57.50;;;;;;4991579;28;20098;-75
2021/07/28 12:06:10;;;;;;;4.85;3.72;;;28.70;58.30;;;;;;5001474;28;20592;-74
2021/07/28 12:09:07;;;;;;;5.60;3.17;;;28.70;57.90;;;;;;5001563;28;20040;-75
2021/07/28 12:12:01;;;;;;;3.72;2.67;;;28.70;57.40;;;;;;4998779;28;20034;-75
2021/07/28 12:14:49;;;;;;;3.70;2.90;;;28.70;58.00;;;;;;5005299;28;20113;-75
2021/07/28 12:17:34;;;;;;;3.97;3.00;;;28.70;59.10;;;;;;5003410;28;20388;-75
2021/07/28 12:20:20;;;;;;;5.85;2.90;;;28.70;58.60;;;;;;5009893;28;20116;-76
2021/07/28 12:23:06;;;;;;;4.32;3.05;;;28.70;58.80;;;;;;5011713;28;20060;-76
2021/07/28 12:25:56;;;;;;;4.72;2.80;;;28.70;59.10;;;;;;5009752;28;20543;-75
2021/07/28 12:28:51;;;;;;;4.75;3.08;;;28.70;58.00;;;;;;5002063;28;20458;-75
2021/07/28 12:31:37;;;;;;;4.05;2.30;;;28.70;58.30;;;;;;5003071;28;20022;-75
2021/07/28 12:34:23;;;;;;;3.58;2.35;;;28.70;57.10;;;;;;5005864;28;20403;-76
2021/07/28 12:37:22;;;;;;;3.58;2.50;;;28.60;57.00;;;;;;5004404;28;20054;-76
2021/07/28 12:40:08;;;;;;;6.63;3.70;;;28.60;57.70;;;;;;5005228;28;20038;-75
2021/07/28 12:42:54;;;;;;;4.18;3.30;;;28.60;57.70;;;;;;5010672;28;20030;-74
2021/07/28 12:45:41;;;;;;;3.95;2.80;;;28.60;57.40;;;;;;5001577;28;20056;-75
2021/07/28 12:48:29;;;;;;;4.75;3.00;;;28.50;56.80;;;;;;4992302;28;20136;-75
2021/07/28 12:51:20;;;;;;;3.55;2.35;;;28.60;57.60;;;;;;5006178;28;20026;-74
2021/07/28 12:54:06;;;;;;;4.60;2.55;;;28.60;57.40;;;;;;5011987;28;20406;-74
2021/07/28 12:56:52;;;;;;;3.47;2.47;;;28.60;56.30;;;;;;5010208;28;20025;-74
2021/07/28 12:59:38;;;;;;;3.97;2.53;;;28.60;56.90;;;;;;5012453;28;20041;-75
2021/07/28 13:02:23;;;;;;;3.47;2.17;;;28.60;56.70;;;;;;5009659;28;20041;-74
2021/07/28 13:05:24;;;;;;;4.50;2.72;;;28.70;57.20;;;;;;4995678;28;20085;-75
2021/07/28 13:08:11;;;;;;;3.67;2.47;;;28.70;57.60;;;;;;5008032;28;20044;-74
2021/07/28 13:10:57;;;;;;;6.20;2.20;;;28.70;57.20;;;;;;5011437;28;20030;-74
2021/07/28 13:13:43;;;;;;;3.72;2.70;;;28.70;57.20;;;;;;5009624;28;20037;-74
2021/07/28 13:16:28;;;;;;;4.43;2.67;;;28.70;57.30;;;;;;5004272;28;20555;-74
2021/07/28 13:19:14;;;;;;;4.50;2.80;;;28.60;57.30;;;;;;5010845;28;20530;-74
2021/07/28 13:22:00;;;;;;;4.45;2.08;;;28.60;57.10;;;;;;5010368;28;20108;-74
2021/07/28 13:24:46;;;;;;;4.18;2.78;;;28.70;56.70;;;;;;5009797;28;20080;-74
2021/07/28 13:27:32;;;;;;;3.90;2.70;;;28.70;57.00;;;;;;5011112;28;20095;-74
2021/07/28 13:30:17;;;;;;;4.60;2.85;;;28.70;57.70;;;;;;5010301;28;20169;-74
2021/07/28 13:33:03;;;;;;;3.30;2.47;;;28.70;57.70;;;;;;5008237;28;20033;-74
2021/07/28 13:35:49;;;;;;;3.42;2.42;;;28.80;57.50;;;;;;5007788;28;20461;-74
2021/07/28 13:38:35;;;;;;;4.32;2.70;;;28.80;57.60;;;;;;5008716;28;20498;-74
2021/07/28 13:41:21;;;;;;;3.10;2.30;;;28.90;57.00;;;;;;5009671;28;20041;-74
2021/07/28 13:44:07;;;;;;;3.35;2.40;;;28.80;56.70;;;;;;5008680;28;20022;-74
2021/07/28 13:46:53;;;;;;;3.58;2.58;;;28.80;56.80;;;;;;5002335;28;20034;-75
2021/07/28 13:49:39;;;;;;;3.63;2.70;;;28.80;56.90;;;;;;5010249;28;20465;-74
2021/07/28 13:52:24;;;;;;;4.32;2.58;;;28.80;56.70;;;;;;5002935;28;20026;-74
2021/07/28 13:55:11;;;;;;;5.30;2.67;;;28.80;57.20;;;;;;5011043;28;20407;-74
2021/07/28 13:57:57;;;;;;;4.38;2.65;;;28.80;56.80;;;;;;4991084;28;20033;-74
2021/07/28 14:00:42;;;;;;;4.35;2.72;;;28.70;56.70;;;;;;5004703;28;20049;-75
2021/07/28 14:03:27;;;;;;;4.38;2.88;;;28.70;56.40;;;;;;4995269;28;20053;-74
2021/07/28 14:06:11;;;;;;;4.53;2.45;;;28.70;56.80;;;;;;5004785;28;20085;-74
2021/07/28 14:08:56;;;;;;;3.80;2.40;;;28.70;56.90;;;;;;5012133;28;20037;-74
2021/07/28 14:11:40;;;;;;;3.63;2.20;;;28.70;56.70;;;;;;5008408;28;20046;-74
2021/07/28 14:14:25;;;;;;;3.03;2.05;;;28.70;56.10;;;;;;5009366;28;20040;-74
2021/07/28 14:17:09;;;;;;;3.10;2.30;;;28.70;55.70;;;;;;5007361;28;20425;-74
2021/07/28 14:19:53;;;;;;;4.57;2.13;;;28.60;55.90;;;;;;5009890;28;20112;-74
2021/07/28 14:22:38;;;;;;;2.72;2.13;;;28.60;56.80;;;;;;5008942;28;20052;-75
2021/07/28 14:25:21;;;;;;;3.40;2.13;;;28.60;57.00;;;;;;5010746;28;20033;-74
2021/07/28 14:28:07;;;;;;;3.58;2.78;;;28.50;56.60;;;;;;5004926;28;20111;-74
2021/07/28 14:30:53;;;;;;;3.17;2.45;;;28.50;56.50;;;;;;5009502;28;20088;-74